CheckWX is a tool to help pilots better visualize weather data.  It is not intended as a substitute for an official pre-flight weather briefing.

02:49:30 UTC

KEVV METAR
Evansville Regional Airport
Evansville, Indiana, USA
Current

56 mins ago

KEVV 230154Z 21009KT 10SM FEW100 27/16 A2998 RMK AO2 SLP146 T02720161
Observed
Sep-23 @ 01:54 UTC
Wind
  • 210° at 9 KTS
Visibility
10 SM
Flight Rules
VFR
Cloud Levels
  • Few at 10,000' AGL
Temperature
27°C / 81°F
Dewpoint
16°C / 61°F
Heat Index
28°C / 82°F
Humidity
51%
Altimeter
29.98" Hg
Pressure
1015.22 hPa
Previous

2 hours ago

KEVV 230054Z 20008KT 10SM CLR 28/16 A2996 RMK AO2 SLP142 T02780156
Observed
Sep-23 @ 00:54 UTC
Wind
  • 200° at 8 KTS
Visibility
10 SM
Flight Rules
VFR
Cloud Levels
  • Clear skies
Temperature
28°C / 82°F
Dewpoint
16°C / 61°F
Heat Index
28°C / 82°F
Humidity
48%
Altimeter
29.96" Hg
Pressure
1014.52 hPa
Previous

3 hours ago

KEVV 222354Z 20009KT 10SM BKN080 29/15 A2996 RMK AO2 SLP141 T02940150 10328 20294 55006
Observed
Sep-22 @ 23:54 UTC
Wind
  • 200° at 9 KTS
Visibility
10 SM
Flight Rules
VFR
Cloud Levels
  • Broken at 8,000' AGL
Temperature
29°C / 84°F
Dewpoint
15°C / 59°F
Heat Index
29°C / 84°F
Humidity
43%
Altimeter
29.96" Hg
Pressure
1014.52 hPa